Time;durP1;ratioP1;P1;durP2;ratioP2;P2;SDS_P1;SDS_P2;PMS_P1;PMS_P2;Temp;Humidity;BMP_temperature;BMP_pressure;BME280_temperature;BME280_humidity;BME280_pressure;Samples;Min_cycle;Max_cycle;Signal;HPM_P1;HPM_P2
2022/01/29 00:04:18;;;;;;;10.20;4.20;;;;;;;-0.78;78.76;100654.17;209089;1316;140661;-66
2022/01/29 00:09:21;;;;;;;11.60;4.00;;;;;;;-0.82;78.70;100650.34;208604;1315;141550;-70
2022/01/29 00:14:27;;;;;;;11.60;4.10;;;;;;;-0.83;78.56;100652.57;204440;1315;5698935;-74
2022/01/29 00:19:31;;;;;;;10.70;3.90;;;;;;;-0.82;78.81;100646.89;208768;1315;141751;-74
2022/01/29 00:24:35;;;;;;;8.50;3.30;;;;;;;-0.83;78.76;100647.99;208602;1316;140659;-73
2022/01/29 00:29:41;;;;;;;10.90;5.90;;;;;;;-0.85;78.69;100645.38;208248;1316;140223;-74
2022/01/29 00:34:45;;;;;;;12.60;4.90;;;;;;;-0.84;78.64;100656.15;207227;1316;141729;-69
2022/01/29 00:39:49;;;;;;;6.50;2.60;;;;;;;-0.90;78.97;100662.09;207591;1316;142179;-70
2022/01/29 00:44:55;;;;;;;7.20;3.80;;;;;;;-1.00;78.81;100662.48;207847;1316;140212;-69
2022/01/29 00:49:59;;;;;;;18.10;3.70;;;;;;;-1.04;78.98;100665.95;207507;1315;141089;-71
2022/01/29 00:55:02;;;;;;;9.50;3.60;;;;;;;-1.04;79.28;100663.66;207770;1315;142452;-71
2022/01/29 01:00:08;;;;;;;12.30;5.00;;;;;;;-1.05;79.20;100667.27;207418;1316;141824;-70
2022/01/29 01:05:12;;;;;;;13.70;6.60;;;;;;;-1.08;79.35;100675.73;207756;1316;140347;-70
2022/01/29 01:10:15;;;;;;;8.40;3.90;;;;;;;-1.14;79.46;100672.07;207415;1315;140580;-71
2022/01/29 01:15:18;;;;;;;9.20;3.50;;;;;;;-1.17;79.50;100668.02;207185;1317;140245;-70
2022/01/29 01:20:20;;;;;;;14.50;8.20;;;;;;;-1.18;79.47;100663.69;208676;1316;140212;-71
2022/01/29 01:25:23;;;;;;;13.60;5.20;;;;;;;-1.20;79.38;100650.50;208386;1316;139720;-70
2022/01/29 01:30:26;;;;;;;8.90;5.60;;;;;;;-1.22;79.60;100640.24;207282;1316;141051;-70
2022/01/29 01:35:35;;;;;;;9.20;3.20;;;;;;;-1.26;79.63;100633.39;208569;1316;140039;-71
2022/01/29 01:40:41;;;;;;;8.00;4.00;;;;;;;-1.30;79.51;100631.70;207772;1316;139573;-70
2022/01/29 01:45:47;;;;;;;8.30;2.70;;;;;;;-1.31;79.45;100620.83;208323;1317;140260;-70
2022/01/29 01:50:51;;;;;;;15.40;3.70;;;;;;;-1.34;79.70;100619.83;208301;1316;139792;-70
2022/01/29 01:55:54;;;;;;;4.00;2.00;;;;;;;-1.37;79.66;100613.45;208334;1316;139234;-68
2022/01/29 02:00:58;;;;;;;8.90;3.40;;;;;;;-1.38;79.83;100604.85;208719;1317;139882;-70
2022/01/29 02:06:01;;;;;;;8.90;3.90;;;;;;;-1.33;79.78;100603.56;208708;1316;140942;-67
2022/01/29 02:11:08;;;;;;;9.40;6.60;;;;;;;-1.29;79.74;100595.30;209422;1316;140679;-70
2022/01/29 02:16:14;;;;;;;8.60;3.90;;;;;;;-1.25;79.92;100588.15;207833;1316;139308;-70
2022/01/29 02:21:18;;;;;;;10.20;4.40;;;;;;;-1.26;79.94;100584.38;208937;1316;139681;-70
2022/01/29 02:26:20;;;;;;;7.60;5.10;;;;;;;-1.25;80.03;100580.52;209315;1314;139946;-70
2022/01/29 02:31:25;;;;;;;8.90;4.50;;;;;;;-1.23;79.87;100575.23;209171;1316;139321;-69
2022/01/29 02:36:28;;;;;;;5.10;3.70;;;;;;;-1.15;79.92;100575.60;207684;1313;140456;-69
2022/01/29 02:41:33;;;;;;;6.30;3.50;;;;;;;-1.11;79.76;100569.57;208666;1316;139609;-70
2022/01/29 02:46:57;;;;;;;10.20;3.60;;;;;;;-1.12;79.72;100562.84;208631;1316;140105;-70
2022/01/29 02:52:06;;;;;;;8.40;3.00;;;;;;;-1.13;79.91;100563.52;208048;1316;140232;-70
2022/01/29 02:57:12;;;;;;;8.30;3.70;;;;;;;-1.16;79.98;100566.70;207703;1315;139988;-69
2022/01/29 03:02:16;;;;;;;3.80;2.80;;;;;;;-1.20;79.97;100573.40;208802;1316;140218;-70
2022/01/29 03:07:19;;;;;;;12.30;6.20;;;;;;;-1.25;79.59;100568.24;207540;1316;139321;-69
2022/01/29 03:12:23;;;;;;;6.90;6.20;;;;;;;-1.27;79.76;100568.82;207682;1316;140905;-67
2022/01/29 03:17:30;;;;;;;11.00;3.80;;;;;;;-1.26;80.09;100564.88;207716;1315;139194;-66
2022/01/29 03:22:33;;;;;;;7.70;4.10;;;;;;;-1.30;80.01;100552.91;207293;1316;139599;-69
2022/01/29 03:27:36;;;;;;;8.90;3.90;;;;;;;-1.38;80.06;100546.63;207300;1316;141000;-69
2022/01/29 03:32:48;;;;;;;9.50;4.70;;;;;;;-1.45;80.18;100545.84;207523;1316;233059;-69
2022/01/29 03:37:52;;;;;;;18.20;5.20;;;;;;;-1.50;80.17;100542.63;207370;1316;139905;-69
2022/01/29 03:43:02;;;;;;;12.90;3.70;;;;;;;-1.53;80.21;100544.30;208032;1315;140756;-69
2022/01/29 03:48:11;;;;;;;9.00;4.20;;;;;;;-1.53;80.25;100542.61;208553;1316;140308;-71
2022/01/29 03:53:15;;;;;;;10.90;5.30;;;;;;;-1.56;80.43;100540.41;208548;1315;139475;-71
2022/01/29 03:58:20;;;;;;;8.40;3.60;;;;;;;-1.60;80.37;100534.27;207797;1317;141661;-70
2022/01/29 04:03:24;;;;;;;5.30;4.70;;;;;;;-1.62;80.47;100527.89;208236;1316;142296;-70
2022/01/29 04:08:27;;;;;;;11.40;4.70;;;;;;;-1.64;80.50;100519.48;207783;1319;140528;-71
2022/01/29 04:13:30;;;;;;;8.90;5.00;;;;;;;-1.58;80.69;100514.77;208116;1316;143485;-69
2022/01/29 04:18:34;;;;;;;24.80;6.10;;;;;;;-1.51;80.74;100512.93;209089;1319;140791;-69
2022/01/29 04:23:37;;;;;;;10.40;6.00;;;;;;;-1.45;80.96;100506.95;209762;1316;141739;-69
2022/01/29 04:28:43;;;;;;;14.10;5.90;;;;;;;-1.41;81.07;100511.50;209355;1316;139402;-71
2022/01/29 04:33:47;;;;;;;17.00;6.00;;;;;;;-1.35;80.86;100523.52;209711;1315;141588;-72
2022/01/29 04:38:50;;;;;;;11.90;6.50;;;;;;;-1.31;80.81;100529.56;210060;1317;141864;-71
2022/01/29 04:43:53;;;;;;;11.50;6.30;;;;;;;-1.29;80.70;100529.42;208849;1316;140964;-71
2022/01/29 04:49:06;;;;;;;12.90;6.60;;;;;;;-1.31;80.76;100520.70;208542;1316;139671;-70
2022/01/29 04:54:12;;;;;;;11.30;6.90;;;;;;;-1.33;80.92;100517.20;207805;1312;141207;-71
2022/01/29 04:59:18;;;;;;;17.10;8.50;;;;;;;-1.35;80.78;100507.80;208601;1314;140390;-71
2022/01/29 05:04:23;;;;;;;12.00;6.10;;;;;;;-1.33;80.85;100509.00;208143;1315;139626;-70
2022/01/29 05:09:27;;;;;;;9.20;6.10;;;;;;;-1.29;80.84;100509.73;208048;1316;140301;-70
2022/01/29 05:14:41;;;;;;;11.30;5.90;;;;;;;-1.31;81.16;100494.51;207637;1316;139187;-67
2022/01/29 05:30:37;;;;;;;23.90;12.20;;;;;;;-1.33;81.08;100480.08;207475;1313;141871;-70
2022/01/29 05:35:40;;;;;;;7.20;4.30;;;;;;;-1.33;81.27;100479.92;207372;1316;141600;-67
2022/01/29 05:40:43;;;;;;;9.50;5.50;;;;;;;-1.36;81.23;100472.33;207948;1315;142011;-70
2022/01/29 05:45:49;;;;;;;8.40;4.70;;;;;;;-1.36;81.08;100462.21;207299;1315;140795;-70
2022/01/29 05:50:52;;;;;;;9.10;5.30;;;;;;;-1.37;81.48;100446.23;207167;1315;140735;-69
2022/01/29 05:55:56;;;;;;;11.50;4.90;;;;;;;-1.39;81.48;100426.02;208040;1316;140393;-70
2022/01/29 06:00:58;;;;;;;10.20;4.70;;;;;;;-1.44;81.48;100418.84;207184;1316;139106;-68
2022/01/29 06:06:02;;;;;;;11.30;4.00;;;;;;;-1.48;81.57;100416.28;207438;1315;139878;-69
2022/01/29 06:11:04;;;;;;;10.20;5.90;;;;;;;-1.49;81.66;100411.66;208106;1315;140476;-69
2022/01/29 06:16:10;;;;;;;10.00;4.90;;;;;;;-1.48;81.88;100409.77;208193;1316;141127;-69
2022/01/29 06:21:15;;;;;;;14.90;4.90;;;;;;;-1.47;81.92;100412.13;207659;1316;140175;-68
2022/01/29 06:26:18;;;;;;;8.80;4.80;;;;;;;-1.47;81.91;100410.23;207619;1316;140567;-67
2022/01/29 06:31:24;;;;;;;14.60;5.70;;;;;;;-1.43;81.96;100411.39;209816;1316;142825;-71
2022/01/29 06:36:28;;;;;;;12.50;5.10;;;;;;;-1.38;82.25;100401.83;209138;1316;139782;-70
2022/01/29 06:41:36;;;;;;;10.60;4.40;;;;;;;-1.31;82.41;100395.38;209604;1316;140070;-71
2022/01/29 06:46:42;;;;;;;;;;;;;;;-1.24;82.20;100397.48;209174;1316;140348;-71
2022/01/29 06:51:45;;;;;;;133.70;45.00;;;;;;;-1.19;82.24;100381.60;210060;1319;127315;-73
2022/01/29 06:56:49;;;;;;;39.20;13.40;;;;;;;-1.09;82.24;100378.38;208871;1316;232158;-73
2022/01/29 07:01:52;;;;;;;15.30;6.90;;;;;;;-0.99;82.21;100372.81;208019;1315;151307;-68
2022/01/29 07:06:56;;;;;;;18.10;5.20;;;;;;;-0.87;82.57;100366.90;207988;1317;141727;-65
2022/01/29 07:12:08;;;;;;;22.10;6.30;;;;;;;-0.63;82.51;100364.65;208569;1316;140446;-66
2022/01/29 07:17:13;;;;;;;15.30;6.70;;;;;;;-0.42;82.69;100359.21;208268;1315;139758;-74
2022/01/29 07:22:17;;;;;;;7.30;4.20;;;;;;;-0.30;82.60;100347.06;208206;1315;139469;-72
2022/01/29 07:27:19;;;;;;;11.70;6.00;;;;;;;-0.19;83.02;100338.81;207684;1315;139650;-72
2022/01/29 07:32:22;;;;;;;18.30;4.20;;;;;;;-0.06;82.89;100324.10;206807;1315;139378;-67
2022/01/29 07:37:24;;;;;;;17.50;6.70;;;;;;;0.08;82.72;100313.93;207214;1315;140401;-66
2022/01/29 07:42:26;;;;;;;12.60;4.40;;;;;;;0.15;82.42;100314.87;207034;1315;139494;-70
2022/01/29 07:47:36;;;;;;;17.90;4.80;;;;;;;0.17;82.38;100300.49;207720;1315;139720;-76
2022/01/29 07:52:39;;;;;;;13.10;5.80;;;;;;;0.21;82.53;100292.73;206914;1317;139288;-70
2022/01/29 07:57:50;;;;;;;26.80;7.70;;;;;;;0.27;82.81;100294.21;207582;1315;138972;-68
2022/01/29 08:02:53;;;;;;;16.10;6.50;;;;;;;0.36;82.68;100286.31;207849;1316;141436;-69
2022/01/29 08:07:55;;;;;;;14.40;5.90;;;;;;;0.51;82.90;100274.83;208758;1316;141409;-71
2022/01/29 08:13:00;;;;;;;27.60;6.30;;;;;;;0.64;82.49;100261.70;207404;1314;486879;-72
2022/01/29 08:18:05;;;;;;;15.00;6.60;;;;;;;0.73;82.40;100249.83;209227;1315;142547;-81
2022/01/29 08:23:08;;;;;;;12.40;4.70;;;;;;;0.76;82.36;100241.02;208270;1315;140952;-72
2022/01/29 08:28:11;;;;;;;15.80;7.50;;;;;;;0.80;81.92;100235.06;208988;1315;139429;-70
2022/01/29 08:33:17;;;;;;;19.00;6.50;;;;;;;0.86;81.85;100225.34;208488;1316;140204;-71
2022/01/29 08:38:28;;;;;;;16.00;5.90;;;;;;;0.97;81.71;100214.14;207368;1315;139878;-73
2022/01/29 08:43:32;;;;;;;22.70;10.10;;;;;;;1.12;82.24;100215.41;209440;1315;139585;-71
2022/01/29 08:48:35;;;;;;;14.30;5.40;;;;;;;1.32;81.73;100207.48;208737;1316;140160;-71
2022/01/29 08:53:37;;;;;;;22.80;8.50;;;;;;;1.62;81.72;100199.70;209236;1315;141744;-70
2022/01/29 08:58:40;;;;;;;31.60;8.00;;;;;;;1.91;81.81;100190.23;208514;1316;139905;-68
2022/01/29 09:03:43;;;;;;;23.00;7.30;;;;;;;2.07;81.29;100183.59;208270;1315;142404;-69
2022/01/29 09:08:49;;;;;;;17.30;8.10;;;;;;;2.17;81.17;100179.66;208683;1315;150422;-71
2022/01/29 09:13:51;;;;;;;17.40;6.30;;;;;;;2.26;80.62;100168.45;207359;1315;139792;-70
2022/01/29 09:18:54;;;;;;;18.20;8.20;;;;;;;2.31;80.46;100162.98;208118;1315;140507;-69
2022/01/29 09:24:01;;;;;;;16.80;6.50;;;;;;;2.28;80.51;100158.33;208693;1315;139914;-72
2022/01/29 09:29:04;;;;;;;15.10;6.30;;;;;;;2.27;80.57;100146.20;207857;1315;140455;-71
2022/01/29 09:34:07;;;;;;;20.70;8.80;;;;;;;2.40;80.20;100143.74;207436;1315;140619;-72
2022/01/29 09:39:12;;;;;;;15.20;8.00;;;;;;;2.62;80.74;100133.03;208186;1315;140023;-72
2022/01/29 09:44:14;;;;;;;27.50;6.70;;;;;;;2.75;80.24;100138.42;207775;1315;138969;-73
2022/01/29 09:49:18;;;;;;;28.40;7.80;;;;;;;2.90;80.10;100150.12;206978;1316;139540;-69
2022/01/29 09:54:28;;;;;;;34.40;8.50;;;;;;;2.91;79.89;100137.23;207435;1316;142554;-66
2022/01/29 09:59:31;;;;;;;26.60;8.20;;;;;;;2.77;79.80;100123.59;207424;1316;141242;-68
2022/01/29 10:04:56;;;;;;;28.90;8.90;;;;;;;2.71;79.88;100113.70;207172;1316;140143;-69
2022/01/29 10:10:00;;;;;;;23.60;8.40;;;;;;;2.62;79.81;100108.23;207474;1315;141696;-69
2022/01/29 10:15:10;;;;;;;24.00;11.00;;;;;;;2.53;80.29;100097.48;208081;1315;140664;-69
2022/01/29 10:20:27;;;;;;;19.70;7.80;;;;;;;2.56;80.22;100078.39;206819;1315;140325;-68
2022/01/29 10:25:36;;;;;;;19.00;8.90;;;;;;;2.63;80.04;100066.02;207199;1315;141243;-70
2022/01/29 10:30:51;;;;;;;14.90;7.10;;;;;;;2.68;80.11;100052.82;209158;1315;141630;-71
2022/01/29 10:35:57;;;;;;;16.20;7.20;;;;;;;2.68;79.90;100035.77;208406;1315;140894;-72
2022/01/29 10:41:24;;;;;;;15.50;7.40;;;;;;;2.78;80.12;100012.68;209334;1316;140907;-71
2022/01/29 10:46:31;;;;;;;24.40;7.80;;;;;;;2.87;79.90;99998.65;209610;1316;142381;-71
2022/01/29 10:51:35;;;;;;;9.00;4.60;;;;;;;2.83;79.59;99996.31;209071;1315;139601;-71
2022/01/29 10:57:17;;;;;;;19.30;7.90;;;;;;;2.70;79.37;99973.05;209457;1316;139018;-71
2022/01/29 11:02:24;;;;;;;21.30;6.70;;;;;;;2.65;79.71;99953.88;208416;1316;142153;-72
2022/01/29 11:07:29;;;;;;;20.80;8.40;;;;;;;2.63;79.72;99929.64;208933;1315;140617;-70
2022/01/29 11:12:36;;;;;;;20.80;8.10;;;;;;;2.60;79.77;99926.14;208582;1315;140079;-70
2022/01/29 11:17:40;;;;;;;18.30;10.30;;;;;;;2.57;79.57;99921.67;207863;1315;233211;-70
2022/01/29 11:23:04;;;;;;;17.60;8.20;;;;;;;2.48;79.87;99909.17;207205;1316;139449;-69
2022/01/29 11:28:18;;;;;;;18.00;7.20;;;;;;;2.38;79.75;99890.55;208172;1315;140719;-68
2022/01/29 11:33:27;;;;;;;21.10;8.30;;;;;;;2.33;79.62;99886.14;208170;1316;141593;-70
2022/01/29 11:38:33;;;;;;;15.50;7.20;;;;;;;2.31;80.12;99877.73;207828;1315;140881;-70
2022/01/29 11:43:38;;;;;;;15.10;7.80;;;;;;;2.27;80.03;99871.18;207940;1315;139226;-70
2022/01/29 11:48:56;;;;;;;21.60;8.00;;;;;;;2.21;80.33;99857.77;207241;1315;140230;-70
2022/01/29 11:54:01;;;;;;;14.60;7.50;;;;;;;2.18;80.51;99842.50;206975;1315;139797;-67
2022/01/29 11:59:34;;;;;;;12.20;7.60;;;;;;;2.12;80.41;99827.81;207013;1316;138729;-67
2022/01/29 12:04:58;;;;;;;19.60;8.30;;;;;;;2.01;80.84;99804.57;206952;1315;138656;-67
2022/01/29 12:10:14;;;;;;;21.80;9.50;;;;;;;1.93;80.64;99782.84;208457;1315;139549;-68
2022/01/29 12:15:21;;;;;;;13.50;7.90;;;;;;;1.92;80.76;99774.77;208024;1316;141516;-69
2022/01/29 12:20:25;;;;;;;;;;;;;;;1.80;80.55;99754.93;208242;1316;140067;-68
2022/01/29 12:25:41;;;;;;;23.30;11.10;;;;;;;1.65;81.10;99752.27;207793;1315;125904;-70
2022/01/29 12:30:45;;;;;;;23.70;7.50;;;;;;;1.54;81.19;99739.38;208783;1315;139979;-71
2022/01/29 12:36:09;;;;;;;15.20;9.20;;;;;;;1.52;81.25;99721.09;207368;1315;141006;-74
2022/01/29 12:41:28;;;;;;;21.60;11.30;;;;;;;1.52;81.23;99704.76;207306;1315;141097;-74
2022/01/29 12:46:59;;;;;;;11.30;6.50;;;;;;;1.50;81.31;99686.46;208697;1315;140201;-72
2022/01/29 12:52:06;;;;;;;18.30;9.50;;;;;;;1.44;81.59;99666.08;209372;1315;140393;-75
2022/01/29 12:57:09;;;;;;;22.70;9.20;;;;;;;1.50;81.45;99659.86;208361;1315;140627;-70
2022/01/29 13:02:20;;;;;;;12.50;5.70;;;;;;;1.47;81.74;99647.25;209003;1316;140210;-68
2022/01/29 13:07:22;;;;;;;13.20;7.70;;;;;;;1.41;81.59;99626.79;208746;1315;140747;-67
2022/01/29 13:12:25;;;;;;;15.20;8.80;;;;;;;1.40;81.93;99609.31;207633;1315;140648;-67
2022/01/29 13:17:28;;;;;;;14.10;7.30;;;;;;;1.44;82.07;99592.64;207710;1315;142024;-68
2022/01/29 13:22:31;;;;;;;10.80;7.40;;;;;;;1.42;82.33;99590.52;207425;1313;140306;-69
2022/01/29 13:27:36;;;;;;;16.90;6.90;;;;;;;1.38;82.03;99579.75;209267;1315;141665;-68
2022/01/29 13:32:39;;;;;;;12.10;7.50;;;;;;;1.37;82.03;99574.88;208961;1315;141837;-69
2022/01/29 13:37:42;;;;;;;14.20;8.00;;;;;;;1.30;82.20;99562.13;208440;1313;140003;-71
2022/01/29 13:43:09;;;;;;;10.50;7.10;;;;;;;1.24;82.68;99546.52;208470;1315;139037;-70
2022/01/29 13:48:13;;;;;;;14.00;7.40;;;;;;;1.18;82.29;99519.14;208345;1315;139535;-71
2022/01/29 13:53:18;;;;;;;13.40;6.80;;;;;;;1.14;82.50;99511.08;207605;1313;141411;-68
2022/01/29 13:58:23;;;;;;;12.90;7.70;;;;;;;1.13;82.41;99490.80;207595;1315;139881;-67
2022/01/29 14:03:49;;;;;;;10.30;7.30;;;;;;;1.11;82.96;99485.64;209469;1315;139167;-69
2022/01/29 14:09:26;;;;;;;10.50;7.00;;;;;;;1.10;82.61;99466.75;208367;1315;139157;-67
2022/01/29 14:14:49;;;;;;;9.70;6.20;;;;;;;1.11;83.02;99453.85;206989;1315;141449;-70
2022/01/29 14:19:56;;;;;;;7.90;4.70;;;;;;;1.03;83.23;99438.10;208717;1315;139671;-70
2022/01/29 15:25:59;;;;;;;21.40;12.80;;;;;;;-0.16;87.06;99318.02;207657;1351;686258;-69
2022/01/29 15:31:03;;;;;;;11.30;8.40;;;;;;;-0.04;86.72;99295.39;203934;1330;139830;-69
2022/01/29 15:36:12;;;;;;;9.70;7.00;;;;;;;0.16;86.32;99281.80;204669;1331;701034;-72
2022/01/29 15:41:16;;;;;;;12.00;7.00;;;;;;;0.33;86.47;99251.27;205388;1328;139371;-68
2022/01/29 15:46:20;;;;;;;5.00;4.20;;;;;;;0.45;86.21;99230.59;205919;1326;139387;-68
2022/01/29 15:51:23;;;;;;;7.50;5.10;;;;;;;0.55;86.19;99216.29;205332;1330;138610;-69
2022/01/29 15:56:25;;;;;;;7.60;5.60;;;;;;;0.70;86.16;99219.39;207094;1317;140583;-71
2022/01/29 16:02:24;;;;;;;6.40;4.60;;;;;;;0.81;86.18;99204.80;207331;1317;142328;-67
2022/01/29 16:10:59;;;;;;;5.60;4.00;;;;;;;0.91;86.35;99166.96;208068;1351;683518;-71
2022/01/29 16:16:03;;;;;;;5.30;4.10;;;;;;;0.97;86.05;99159.22;207273;1326;140482;-67
2022/01/29 16:21:15;;;;;;;3.70;3.40;;;;;;;1.02;86.39;99148.36;205314;1326;514455;-67
2022/01/29 16:26:17;;;;;;;5.30;4.00;;;;;;;1.07;86.27;99114.14;207809;1326;139287;-71
2022/01/29 16:31:25;;;;;;;9.40;5.20;;;;;;;1.13;86.54;99086.98;207999;1326;140021;-70
2022/01/29 16:41:04;;;;;;;5.50;4.40;;;;;;;1.25;86.45;99083.53;207525;1357;684258;-70
2022/01/29 16:46:07;;;;;;;4.80;3.40;;;;;;;1.27;86.40;99068.73;206900;1328;140602;-74
2022/01/29 16:51:11;;;;;;;6.50;4.40;;;;;;;1.31;86.41;99052.98;205982;1325;1766276;-72
2022/01/29 16:56:30;;;;;;;7.30;5.20;;;;;;;1.37;86.51;99027.70;205768;1325;141431;-68
2022/01/29 17:01:35;;;;;;;4.80;3.80;;;;;;;1.43;86.43;99008.34;206374;1328;139344;-70
2022/01/29 17:06:49;;;;;;;6.30;4.80;;;;;;;1.44;86.51;99001.14;206487;1324;139613;-67
2022/01/29 17:11:57;;;;;;;6.90;4.40;;;;;;;1.50;86.26;98993.88;207528;1319;139000;-69
2022/01/29 17:17:37;;;;;;;8.80;5.90;;;;;;;1.52;86.48;98983.34;207845;1318;139200;-70
2022/01/29 17:22:49;;;;;;;;;;;;;;;1.53;86.60;98983.30;208651;1319;139095;-72
2022/01/29 17:32:29;;;;;;;9.00;5.40;;;;;;;1.65;87.02;98959.05;207360;1354;684367;-66
2022/01/29 17:37:44;;;;;;;13.20;6.80;;;;;;;1.64;87.05;98937.55;205309;1328;138620;-71
2022/01/29 17:42:58;;;;;;;9.30;6.70;;;;;;;1.70;86.81;98928.96;205224;1328;604803;-70
2022/01/29 17:48:01;;;;;;;7.90;6.50;;;;;;;1.75;86.69;98917.50;205920;1323;139420;-66
2022/01/29 17:53:28;;;;;;;38.20;20.70;;;;;;;1.76;86.94;98898.59;205992;1328;139765;-68
2022/01/29 17:58:51;;;;;;;23.90;11.70;;;;;;;1.81;87.07;98897.67;206120;1325;140196;-69
2022/01/29 18:04:07;;;;;;;10.50;6.70;;;;;;;1.87;87.03;98894.19;205055;1325;139514;-68
2022/01/29 18:09:12;;;;;;;;;;;;;;;1.90;87.48;98865.05;206279;1326;139089;-71
2022/01/29 18:14:16;;;;;;;8.30;6.10;;;;;;;1.90;87.33;98846.41;207012;1319;125393;-74
2022/01/29 18:19:22;;;;;;;12.80;8.20;;;;;;;1.95;87.43;98829.80;206619;1319;139296;-70
2022/01/29 18:24:27;;;;;;;9.50;8.40;;;;;;;2.03;87.32;98815.30;207007;1319;139560;-70
2022/01/29 18:29:34;;;;;;;10.20;7.80;;;;;;;2.07;87.45;98816.95;208512;1319;140349;-72
2022/01/29 18:34:57;;;;;;;10.00;8.70;;;;;;;2.13;87.52;98813.50;208225;1320;141775;-72
2022/01/29 18:40:09;;;;;;;11.10;8.50;;;;;;;2.21;87.29;98800.44;207922;1320;141092;-73
2022/01/29 18:45:16;;;;;;;10.50;9.30;;;;;;;2.24;87.66;98787.98;209115;1317;141008;-75
2022/01/29 18:50:25;;;;;;;10.00;8.40;;;;;;;2.30;87.68;98771.42;207816;1319;149763;-74
2022/01/29 18:55:36;;;;;;;12.20;9.10;;;;;;;2.37;87.76;98761.14;207653;1322;139855;-75
2022/01/29 19:00:39;;;;;;;10.70;8.30;;;;;;;2.47;87.56;98740.02;208213;1322;140592;-74
2022/01/29 19:05:44;;;;;;;12.80;8.20;;;;;;;2.53;87.73;98726.61;207070;1319;139213;-71
2022/01/29 19:10:48;;;;;;;7.90;6.30;;;;;;;2.59;87.82;98705.06;206778;1322;139064;-72
2022/01/29 19:15:53;;;;;;;9.20;5.70;;;;;;;2.63;87.99;98701.73;207596;1322;139532;-73
2022/01/29 19:20:57;;;;;;;9.80;7.40;;;;;;;2.67;87.89;98686.41;207963;1319;162000;-73
2022/01/29 19:26:00;;;;;;;13.00;8.60;;;;;;;2.73;88.18;98659.07;207341;1320;139646;-72
2022/01/29 19:31:03;;;;;;;7.30;6.60;;;;;;;2.79;88.31;98633.90;207492;1319;139981;-71
2022/01/29 19:36:06;;;;;;;10.60;7.20;;;;;;;2.82;88.11;98614.83;206556;1319;138989;-72
2022/01/29 19:41:17;;;;;;;10.10;7.50;;;;;;;2.86;88.33;98595.00;207755;1319;140125;-72
2022/01/29 19:46:40;;;;;;;9.20;6.10;;;;;;;2.89;88.22;98580.69;206537;1319;140469;-71
2022/01/29 19:51:46;;;;;;;9.10;6.70;;;;;;;2.89;88.17;98582.27;207289;1319;138764;-72
2022/01/29 19:56:49;;;;;;;7.50;6.00;;;;;;;2.93;88.40;98588.36;207059;1319;139037;-72
2022/01/29 20:01:57;;;;;;;7.00;5.30;;;;;;;2.97;88.35;98569.70;207415;1318;139689;-72
2022/01/29 20:07:03;;;;;;;9.00;6.10;;;;;;;2.97;88.46;98562.73;207488;1320;139324;-73
2022/01/29 20:12:08;;;;;;;6.20;4.80;;;;;;;2.99;88.11;98547.95;206610;1319;138757;-73
2022/01/29 20:17:13;;;;;;;9.30;6.70;;;;;;;3.01;88.21;98550.19;207792;1319;140409;-74
2022/01/29 20:22:16;;;;;;;10.40;7.30;;;;;;;3.02;88.33;98546.86;206657;1319;140177;-74
2022/01/29 20:27:18;;;;;;;9.30;6.70;;;;;;;3.02;88.41;98544.27;207384;1319;140087;-74
2022/01/29 20:32:40;;;;;;;5.50;5.00;;;;;;;3.03;88.24;98537.42;207590;1319;138997;-74
2022/01/29 20:37:46;;;;;;;10.50;7.10;;;;;;;3.07;88.43;98506.84;207013;1319;140139;-71
2022/01/29 20:42:56;;;;;;;9.60;6.40;;;;;;;3.11;88.58;98492.86;206725;1319;141022;-71
2022/01/29 20:48:05;;;;;;;7.40;6.70;;;;;;;3.13;88.50;98486.88;207438;1319;138993;-73
2022/01/29 20:53:07;;;;;;;8.20;7.20;;;;;;;3.16;88.74;98488.61;207250;1319;139452;-73
2022/01/29 20:58:12;;;;;;;9.00;7.70;;;;;;;3.20;88.60;98469.40;206479;1319;140452;-73
2022/01/29 21:03:20;;;;;;;10.00;7.30;;;;;;;3.24;88.71;98456.77;208278;1319;141703;-73
2022/01/29 21:08:24;;;;;;;9.30;7.00;;;;;;;3.27;88.79;98448.55;208179;1319;139767;-74
2022/01/29 21:13:29;;;;;;;8.60;7.00;;;;;;;3.37;88.95;98426.84;208782;1319;139155;-72
2022/01/29 21:18:31;;;;;;;7.80;5.80;;;;;;;3.47;88.74;98414.52;208244;1319;139788;-70
2022/01/29 21:23:33;;;;;;;10.10;7.50;;;;;;;3.53;88.91;98405.13;208317;1319;139063;-74
2022/01/29 21:28:39;;;;;;;7.90;5.40;;;;;;;3.61;88.82;98403.50;207861;1319;140441;-74
2022/01/29 21:33:41;;;;;;;9.40;7.00;;;;;;;3.67;88.78;98383.90;207711;1319;139778;-71
2022/01/29 21:39:10;;;;;;;8.60;7.70;;;;;;;3.73;88.96;98362.38;206916;1319;140208;-73
2022/01/29 21:44:16;;;;;;;8.60;6.20;;;;;;;3.81;88.83;98341.02;207871;1319;140453;-70
2022/01/29 21:49:19;;;;;;;10.40;6.70;;;;;;;3.83;88.95;98337.67;208095;1319;140343;-72
2022/01/29 21:54:22;;;;;;;8.70;6.40;;;;;;;3.88;88.84;98322.97;206793;1319;139984;-73
2022/01/29 21:59:28;;;;;;;10.80;7.40;;;;;;;3.93;88.91;98308.65;207067;1319;141052;-67
2022/01/29 22:04:34;;;;;;;10.00;8.10;;;;;;;3.94;88.96;98306.16;207007;1319;142017;-73
2022/01/29 22:09:37;;;;;;;7.30;5.80;;;;;;;3.99;88.91;98282.13;208061;1319;140030;-74
2022/01/29 22:14:39;;;;;;;7.40;6.10;;;;;;;4.04;88.92;98279.90;207277;1319;163796;-73
2022/01/29 22:19:42;;;;;;;8.60;7.30;;;;;;;4.05;89.02;98272.39;207060;1319;140231;-73
2022/01/29 22:24:44;;;;;;;8.30;6.30;;;;;;;4.11;88.91;98263.73;207332;1319;140022;-71
2022/01/29 22:29:47;;;;;;;7.80;6.00;;;;;;;4.11;89.00;98248.31;207577;1319;150595;-75
2022/01/29 22:35:04;;;;;;;10.10;7.70;;;;;;;4.13;89.05;98231.48;207035;1319;139703;-72
2022/01/29 22:40:11;;;;;;;7.00;6.20;;;;;;;4.17;88.85;98221.10;207662;1319;141329;-73
2022/01/29 22:45:13;;;;;;;8.00;6.10;;;;;;;4.18;88.98;98213.30;206805;1319;139943;-69
2022/01/29 22:50:16;;;;;;;7.90;6.70;;;;;;;4.22;88.98;98203.45;207842;1318;139439;-72
2022/01/29 22:55:20;;;;;;;4.90;4.40;;;;;;;4.27;89.22;98207.76;208439;1316;139771;-75
2022/01/29 23:00:30;;;;;;;7.00;4.80;;;;;;;4.30;89.19;98209.48;208584;1320;140449;-73
2022/01/29 23:05:33;;;;;;;5.20;4.40;;;;;;;4.38;89.16;98192.95;206542;1321;139332;-69
2022/01/29 23:11:46;;;;;;;5.30;3.70;;;;;;;4.47;89.27;98194.13;207504;1325;139549;-73
2022/01/29 23:16:22;;;;;;;2.30;2.10;;;;;;;4.56;89.66;98207.67;208514;1325;161225;-73
2022/01/29 23:26:40;;;;;;;4.40;2.70;;;;;;;4.88;89.65;98204.62;207410;1322;139947;-74
2022/01/29 23:31:42;;;;;;;3.00;1.80;;;;;;;4.96;89.67;98199.05;207219;1320;221126;-74
2022/01/29 23:53:05;;;;;;;6.80;1.50;;;;;;;5.07;88.56;98214.00;208127;1319;140560;-74
2022/01/29 23:58:17;;;;;;;1.80;1.20;;;;;;;5.04;88.06;98239.41;208064;1319;139209;-74
